createdAt,value
2018-07-27T00:01:37.326Z,0.00
2018-07-27T00:02:37.336Z,0.00
2018-07-27T00:04:30.337Z,0.00
2018-07-27T00:05:30.403Z,0.00
2018-07-27T00:07:23.415Z,0.00
2018-07-27T00:08:23.473Z,0.00
2018-07-27T00:10:16.520Z,0.00
2018-07-27T00:11:16.554Z,0.00
2018-07-27T00:13:09.600Z,0.00
2018-07-27T00:14:09.621Z,0.00
2018-07-27T00:16:02.628Z,0.00
2018-07-27T00:17:02.699Z,0.00
2018-07-27T00:18:55.710Z,0.00
2018-07-27T00:19:55.766Z,0.00
2018-07-27T00:21:48.779Z,0.00
2018-07-27T00:22:48.836Z,0.00
2018-07-27T00:24:41.842Z,0.00
2018-07-27T00:25:41.913Z,0.00
2018-07-27T00:27:35.432Z,0.00
2018-07-27T00:28:35.488Z,0.00
2018-07-27T00:30:28.488Z,0.00
2018-07-27T00:31:28.557Z,0.00
2018-07-27T00:33:21.600Z,0.00
2018-07-27T00:34:21.624Z,0.00
2018-07-27T00:36:14.645Z,0.00
2018-07-27T00:37:14.706Z,0.00
2018-07-27T00:39:07.721Z,0.00
2018-07-27T00:40:07.769Z,0.00
2018-07-27T00:42:00.800Z,0.00
2018-07-27T00:43:00.840Z,0.00
2018-07-27T00:44:53.882Z,0.00
2018-07-27T00:45:53.918Z,0.00
2018-07-27T00:47:46.923Z,0.00
2018-07-27T00:48:47.025Z,0.00
2018-07-27T00:50:39.989Z,0.00
2018-07-27T00:51:40.070Z,0.00
2018-07-27T00:53:33.071Z,0.00
2018-07-27T00:54:33.131Z,0.00
2018-07-27T00:56:26.131Z,0.00
2018-07-27T00:57:26.204Z,0.00
2018-07-27T00:59:19.217Z,0.00
2018-07-27T01:00:19.281Z,0.00
2018-07-27T01:02:12.293Z,0.00
2018-07-27T01:03:12.365Z,0.00
2018-07-27T01:05:05.358Z,0.00
2018-07-27T01:06:05.422Z,0.00
2018-07-27T01:07:58.435Z,0.00
2018-07-27T01:08:58.506Z,0.00
2018-07-27T01:10:51.510Z,0.00
2018-07-27T01:11:51.574Z,0.00
2018-07-27T01:13:44.588Z,0.00
2018-07-27T01:14:44.649Z,0.00
2018-07-27T01:16:37.660Z,0.00
2018-07-27T01:17:37.721Z,0.00
2018-07-27T01:19:30.727Z,0.00
2018-07-27T01:20:30.799Z,0.00
2018-07-27T01:22:23.841Z,0.00
2018-07-27T01:23:23.876Z,0.00
2018-07-27T01:25:16.878Z,0.00
2018-07-27T01:26:16.930Z,0.00
2018-07-27T01:28:10.443Z,0.00
2018-07-27T01:29:10.506Z,0.00
2018-07-27T01:31:03.509Z,0.00
2018-07-27T01:32:03.578Z,0.00
2018-07-27T01:33:56.588Z,0.00
2018-07-27T01:34:56.652Z,0.00
2018-07-27T01:36:49.657Z,0.00
2018-07-27T01:37:49.727Z,0.00
2018-07-27T01:39:42.731Z,0.00
2018-07-27T01:40:42.788Z,0.00
2018-07-27T01:42:35.801Z,0.00
2018-07-27T01:43:35.878Z,0.00
2018-07-27T01:45:28.866Z,0.00
2018-07-27T01:46:28.929Z,0.00
2018-07-27T01:48:21.953Z,0.00
2018-07-27T01:49:22.000Z,0.00
2018-07-27T01:51:15.024Z,0.00
2018-07-27T01:52:15.067Z,0.00
2018-07-27T01:54:08.108Z,0.00
2018-07-27T01:55:08.139Z,0.00
2018-07-27T01:57:01.139Z,0.00
2018-07-27T01:58:01.210Z,0.00
2018-07-27T01:59:54.228Z,0.00
2018-07-27T02:00:54.275Z,0.00
2018-07-27T02:02:47.296Z,0.00
2018-07-27T02:03:47.341Z,0.00
2018-07-27T02:05:40.372Z,0.00
2018-07-27T02:06:40.406Z,0.00
2018-07-27T02:08:33.922Z,0.00
2018-07-27T02:09:33.982Z,0.00
2018-07-27T02:11:27.024Z,0.00
2018-07-27T02:12:27.051Z,0.00
2018-07-27T02:14:20.089Z,0.00
2018-07-27T02:15:20.117Z,0.00
2018-07-27T02:17:13.121Z,0.00
2018-07-27T02:18:13.184Z,0.00
2018-07-27T02:20:06.202Z,0.00
2018-07-27T02:21:06.262Z,0.00
2018-07-27T02:22:59.272Z,0.00
2018-07-27T02:23:59.330Z,0.00
2018-07-27T02:25:52.335Z,0.00
2018-07-27T02:26:52.397Z,0.00
2018-07-27T02:28:45.410Z,0.00
2018-07-27T02:29:45.472Z,0.00
2018-07-27T02:31:38.479Z,0.00
2018-07-27T02:32:38.543Z,0.00
2018-07-27T02:34:31.549Z,0.00
2018-07-27T02:35:31.608Z,0.00
2018-07-27T02:37:24.612Z,0.00
2018-07-27T02:38:24.690Z,0.00
2018-07-27T02:40:17.697Z,0.00
2018-07-27T02:41:17.767Z,0.00
2018-07-27T02:43:10.755Z,0.00
2018-07-27T02:44:10.816Z,0.00
2018-07-27T02:46:03.830Z,0.00
2018-07-27T02:47:03.883Z,0.00
2018-07-27T02:48:56.913Z,0.00
2018-07-27T02:49:56.973Z,0.00
2018-07-27T02:51:49.975Z,0.00
2018-07-27T02:52:50.042Z,0.00
2018-07-27T02:54:43.049Z,0.00
2018-07-27T02:55:43.111Z,0.00
2018-07-27T02:57:36.109Z,0.00
2018-07-27T02:58:36.174Z,0.00
2018-07-27T03:00:29.193Z,0.00
2018-07-27T03:01:29.242Z,0.00
2018-07-27T03:03:22.251Z,0.00
2018-07-27T03:04:22.311Z,4.00
2018-07-27T03:06:15.326Z,4.00
2018-07-27T03:07:15.375Z,0.00
2018-07-27T03:09:08.389Z,4.00
2018-07-27T03:10:08.443Z,4.00
2018-07-27T03:12:01.449Z,4.00
2018-07-27T03:13:01.517Z,4.00
2018-07-27T03:14:54.560Z,4.00
2018-07-27T03:15:54.588Z,8.00
2018-07-27T03:17:47.601Z,8.00
2018-07-27T03:18:47.655Z,12.00
2018-07-27T03:20:40.692Z,12.00
2018-07-27T03:21:40.774Z,16.00
2018-07-27T03:23:33.732Z,20.00
2018-07-27T03:24:33.791Z,24.00
2018-07-27T03:26:26.809Z,32.00
2018-07-27T03:27:26.863Z,32.00
2018-07-27T03:29:19.861Z,40.00
2018-07-27T03:30:19.924Z,48.00
2018-07-27T03:32:12.927Z,56.00
2018-07-27T03:33:12.996Z,60.00
2018-07-27T03:35:06.044Z,72.00
2018-07-27T03:36:06.059Z,80.00
2018-07-27T03:37:59.060Z,92.00
2018-07-27T03:38:59.128Z,100.00
2018-07-27T03:40:52.184Z,116.00
2018-07-27T03:41:52.195Z,128.00
2018-07-27T03:43:45.248Z,148.00
2018-07-27T03:44:45.263Z,160.00
2018-07-27T03:46:38.273Z,184.00
2018-07-27T03:47:38.331Z,196.00
2018-07-27T03:49:31.338Z,224.00
2018-07-27T03:50:31.400Z,240.00
2018-07-27T03:52:24.467Z,276.00
2018-07-27T03:53:24.462Z,296.00
2018-07-27T03:55:17.478Z,328.00
2018-07-27T03:56:17.600Z,348.00
2018-07-27T03:58:10.536Z,392.00
2018-07-27T03:59:10.604Z,416.00
2018-07-27T04:01:03.608Z,452.00
2018-07-27T04:02:03.666Z,472.00
2018-07-27T04:03:56.671Z,520.00
2018-07-27T04:04:56.731Z,548.00
2018-07-27T04:06:49.736Z,600.00
2018-07-27T04:07:49.797Z,632.00
2018-07-27T04:09:42.810Z,692.00
2018-07-27T04:10:42.863Z,728.00
2018-07-27T04:12:35.864Z,788.00
2018-07-27T04:13:35.927Z,824.00
2018-07-27T04:15:28.936Z,896.00
2018-07-27T04:16:28.997Z,936.00
2018-07-27T04:18:22.000Z,1008.00
2018-07-27T04:19:22.057Z,1044.00
2018-07-27T04:21:15.068Z,1096.00
2018-07-27T04:22:15.128Z,1120.00
2018-07-27T04:24:08.134Z,1172.00
2018-07-27T04:25:08.191Z,1200.00
2018-07-27T04:27:01.203Z,1264.00
2018-07-27T04:28:01.257Z,1300.00
2018-07-27T04:29:54.259Z,1356.00
2018-07-27T04:30:54.324Z,1388.00
2018-07-27T04:32:47.331Z,1444.00
2018-07-27T04:33:47.386Z,1480.00
2018-07-27T04:35:40.431Z,1540.00
2018-07-27T04:36:40.460Z,1568.00
2018-07-27T04:38:33.460Z,1608.00
2018-07-27T04:39:33.524Z,1628.00
2018-07-27T04:41:26.529Z,1632.00
2018-07-27T04:42:26.590Z,1636.00
2018-07-27T04:44:19.593Z,1648.00
2018-07-27T04:45:19.657Z,1668.00
2018-07-27T04:47:12.668Z,1720.00
2018-07-27T04:48:12.727Z,1748.00
2018-07-27T04:50:05.733Z,1804.00
2018-07-27T04:51:05.793Z,1836.00
2018-07-27T04:52:58.790Z,1892.00
2018-07-27T04:53:58.858Z,1924.00
2018-07-27T04:55:51.862Z,1992.00
2018-07-27T04:56:51.984Z,2028.00
2018-07-27T04:58:44.926Z,2104.00
2018-07-27T04:59:44.989Z,2136.00
2018-07-27T05:01:37.990Z,2184.00
2018-07-27T05:02:38.055Z,2216.00
2018-07-27T05:04:31.056Z,2252.00
2018-07-27T05:05:31.118Z,2280.00
2018-07-27T05:07:24.129Z,2320.00
2018-07-27T05:08:24.183Z,2332.00
2018-07-27T05:10:17.189Z,2368.00
2018-07-27T05:11:17.248Z,2400.00
2018-07-27T05:13:10.247Z,2452.00
2018-07-27T05:14:10.317Z,2480.00
2018-07-27T05:16:03.323Z,2528.00
2018-07-27T05:17:03.385Z,2548.00
2018-07-27T05:18:56.379Z,2612.00
2018-07-27T05:19:56.455Z,2648.00
2018-07-27T05:21:49.455Z,2716.00
2018-07-27T05:22:49.513Z,2744.00
2018-07-27T05:24:42.543Z,2832.00
2018-07-27T05:25:42.580Z,2880.00
2018-07-27T05:27:36.098Z,3000.00
2018-07-27T05:28:36.155Z,3076.00
2018-07-27T05:30:29.150Z,3136.00
2018-07-27T05:31:29.216Z,3156.00
2018-07-27T05:33:22.219Z,3280.00
2018-07-27T05:34:22.335Z,3372.00
2018-07-27T05:36:15.291Z,3432.00
2018-07-27T05:37:15.345Z,3540.00
2018-07-27T05:39:08.345Z,3832.00
2018-07-27T05:40:08.409Z,3908.00
2018-07-27T05:42:01.415Z,4052.00
2018-07-27T05:43:01.477Z,4136.00
2018-07-27T05:44:54.479Z,4260.00
2018-07-27T05:45:54.542Z,4300.00
2018-07-27T05:47:47.556Z,4416.00
2018-07-27T05:48:47.719Z,4500.00
2018-07-27T05:50:40.615Z,4616.00
2018-07-27T05:51:40.679Z,4696.00
2018-07-27T05:53:33.685Z,4808.00
2018-07-27T05:54:33.746Z,4820.00
2018-07-27T05:56:26.750Z,4924.00
2018-07-27T05:57:26.825Z,4996.00
2018-07-27T05:59:19.830Z,5168.00
2018-07-27T06:00:19.888Z,5276.00
2018-07-27T06:02:12.902Z,5420.00
2018-07-27T06:03:12.954Z,5496.00
2018-07-27T06:05:05.955Z,5704.00
2018-07-27T06:06:06.035Z,5840.00
2018-07-27T06:07:59.026Z,6136.00
2018-07-27T06:08:59.097Z,6292.00
2018-07-27T06:10:52.094Z,6644.00
2018-07-27T06:11:52.158Z,6880.00
2018-07-27T06:13:45.160Z,7376.00
2018-07-27T06:14:45.222Z,7696.00
2018-07-27T06:16:38.230Z,8336.00
2018-07-27T06:17:38.292Z,8100.00
2018-07-27T06:19:31.299Z,9296.00
2018-07-27T06:20:31.365Z,10088.00
2018-07-27T06:22:24.377Z,10956.00
2018-07-27T06:23:24.439Z,11948.00
2018-07-27T06:25:17.447Z,15968.00
2018-07-27T06:26:17.506Z,16448.00
2018-07-27T06:28:11.059Z,16960.00
2018-07-27T06:29:11.212Z,17152.00
2018-07-27T06:31:04.118Z,17344.00
2018-07-27T06:32:04.156Z,17376.00
2018-07-27T06:33:57.167Z,17600.00
2018-07-27T06:34:57.231Z,17632.00
2018-07-27T06:36:50.242Z,17856.00
2018-07-27T06:37:50.309Z,18048.00
2018-07-27T06:39:43.329Z,18464.00
2018-07-27T06:40:43.393Z,18624.00
2018-07-27T06:42:36.404Z,19264.00
2018-07-27T06:43:36.475Z,19456.00
2018-07-27T06:45:29.496Z,19968.00
2018-07-27T06:46:29.558Z,20480.00
2018-07-27T06:48:22.573Z,22016.00
2018-07-27T06:49:22.646Z,22944.00
2018-07-27T06:51:15.668Z,24512.00
2018-07-27T06:52:15.735Z,25312.00
2018-07-27T06:54:08.748Z,27904.00
2018-07-27T06:55:08.822Z,29888.00
2018-07-27T06:57:01.998Z,34016.00
2018-07-27T06:58:01.915Z,36480.00
2018-07-27T06:59:54.939Z,42944.00
2018-07-27T07:00:55.271Z,46240.00
2018-07-27T07:02:48.042Z,48384.00
2018-07-27T07:03:48.105Z,52096.00
2018-07-27T07:05:41.129Z,63200.00
2018-07-27T07:06:41.194Z,69056.00
2018-07-27T07:08:34.230Z,83264.00
2018-07-27T07:09:34.290Z,90400.00
2018-07-27T07:11:27.328Z,83136.00
2018-07-27T07:12:27.388Z,80576.00
2018-07-27T07:14:20.459Z,73248.00
2018-07-27T07:15:20.481Z,67072.00
2018-07-27T07:17:13.504Z,57248.00
2018-07-27T07:18:13.578Z,54496.00
2018-07-27T07:20:06.611Z,48608.00
2018-07-27T07:21:06.682Z,46048.00
2018-07-27T07:22:59.726Z,43520.00
2018-07-27T07:23:59.783Z,42592.00
2018-07-27T07:25:53.025Z,41536.00
2018-07-27T07:26:52.891Z,42464.00
2018-07-27T07:28:45.908Z,43008.00
2018-07-27T07:29:45.983Z,43168.00
2018-07-27T07:31:39.013Z,45504.00
2018-07-27T07:32:39.084Z,46848.00
2018-07-27T07:34:32.113Z,48768.00
2018-07-27T07:35:32.187Z,49216.00
2018-07-27T07:37:25.218Z,50272.00
2018-07-27T07:38:25.293Z,50208.00
2018-07-27T07:40:18.323Z,50528.00
2018-07-27T07:41:18.394Z,51424.00
2018-07-27T07:43:11.418Z,50496.00
2018-07-27T07:44:11.502Z,49280.00
2018-07-27T07:46:04.530Z,51904.00
2018-07-27T07:47:04.602Z,54016.00
2018-07-27T07:48:57.630Z,52992.00
2018-07-27T07:49:57.707Z,53632.00
2018-07-27T07:51:50.740Z,53568.00
2018-07-27T07:52:50.812Z,51136.00
2018-07-27T07:54:43.839Z,50656.00
2018-07-27T07:55:43.917Z,48512.00
2018-07-27T07:57:37.062Z,46624.00
2018-07-27T07:58:37.081Z,45888.00
2018-07-27T08:00:30.058Z,46016.00
2018-07-27T08:01:30.131Z,45504.00
2018-07-27T08:03:23.158Z,45184.00
2018-07-27T08:04:23.299Z,45344.00
2018-07-27T08:06:16.274Z,45344.00
2018-07-27T08:07:16.342Z,45376.00
2018-07-27T08:09:09.371Z,44992.00
2018-07-27T08:10:09.451Z,45184.00
2018-07-27T08:12:02.493Z,44704.00
2018-07-27T08:13:02.557Z,44736.00
2018-07-27T08:14:55.589Z,44160.00
2018-07-27T08:15:55.675Z,43808.00
2018-07-27T08:17:48.765Z,43296.00
2018-07-27T08:18:48.843Z,42976.00
2018-07-27T08:20:41.880Z,42016.00
2018-07-27T08:21:41.956Z,42080.00
2018-07-27T08:23:35.029Z,41504.00
2018-07-27T08:24:35.064Z,41664.00
2018-07-27T08:26:28.098Z,42592.00
2018-07-27T08:27:28.174Z,63648.00
2018-07-27T08:29:21.205Z,130784.00
2018-07-27T08:30:21.285Z,116768.00
2018-07-27T08:32:14.323Z,105120.00
2018-07-27T08:33:14.393Z,100512.00
2018-07-27T08:35:07.425Z,92704.00
2018-07-27T08:36:07.509Z,96064.00
2018-07-27T08:38:00.549Z,101056.00
2018-07-27T08:39:00.632Z,99520.00
2018-07-27T08:40:53.665Z,94336.00
2018-07-27T08:41:53.740Z,97056.00
2018-07-27T08:43:46.768Z,87168.00
2018-07-27T08:44:46.853Z,86624.00
2018-07-27T08:46:39.896Z,93920.00
2018-07-27T08:47:39.976Z,95072.00
2018-07-27T08:49:33.000Z,96960.00
2018-07-27T08:50:33.082Z,96960.00
2018-07-27T08:52:26.131Z,79936.00
2018-07-27T08:53:26.206Z,84864.00
2018-07-27T08:55:19.237Z,94016.00
2018-07-27T08:56:19.360Z,95232.00
2018-07-27T08:58:12.360Z,91200.00
2018-07-27T08:59:12.444Z,87488.00
2018-07-27T09:01:05.484Z,92416.00
2018-07-27T09:02:05.547Z,93696.00
2018-07-27T09:03:58.655Z,88896.00
2018-07-27T09:04:58.662Z,86976.00
2018-07-27T09:06:51.745Z,90016.00
2018-07-27T09:07:51.778Z,93920.00
2018-07-27T09:09:44.837Z,94912.00
2018-07-27T09:10:44.897Z,92576.00
2018-07-27T09:12:37.936Z,89888.00
2018-07-27T09:13:38.023Z,87520.00
2018-07-27T09:15:31.049Z,90400.00
2018-07-27T09:16:31.131Z,91392.00
2018-07-27T09:18:24.172Z,88800.00
2018-07-27T09:19:24.249Z,88608.00
2018-07-27T09:21:17.290Z,90912.00
2018-07-27T09:22:17.366Z,87488.00
2018-07-27T09:24:10.417Z,88032.00
2018-07-27T09:25:10.927Z,86560.00
2018-07-27T09:27:03.536Z,86560.00
2018-07-27T09:28:03.607Z,85792.00
2018-07-27T09:29:56.642Z,82528.00
2018-07-27T09:30:56.726Z,85216.00
2018-07-27T09:32:49.767Z,78336.00
2018-07-27T09:33:49.849Z,58336.00
2018-07-27T09:35:42.878Z,7488.00
2018-07-27T09:36:42.962Z,5936.00
2018-07-27T09:38:35.996Z,5820.00
2018-07-27T09:39:36.073Z,5748.00
2018-07-27T09:41:29.103Z,5656.00
2018-07-27T09:42:29.175Z,5636.00
2018-07-27T09:44:22.198Z,5600.00
2018-07-27T09:45:22.278Z,5604.00
2018-07-27T09:47:15.309Z,5660.00
2018-07-27T09:48:15.380Z,5612.00
2018-07-27T09:50:08.399Z,5504.00
2018-07-27T09:51:08.475Z,5476.00
2018-07-27T09:53:01.511Z,5428.00
2018-07-27T09:54:01.570Z,5420.00
2018-07-27T09:55:54.589Z,5476.00
2018-07-27T09:56:54.667Z,5480.00
2018-07-27T09:58:47.691Z,5408.00
2018-07-27T09:59:47.757Z,5352.00
2018-07-27T10:01:40.806Z,5292.00
2018-07-27T10:02:40.848Z,5300.00
2018-07-27T10:04:33.876Z,5304.00
2018-07-27T10:05:33.932Z,5292.00
2018-07-27T10:07:26.968Z,5248.00
2018-07-27T10:08:27.039Z,5228.00
2018-07-27T10:10:20.060Z,5220.00
2018-07-27T10:11:20.138Z,5208.00
2018-07-27T10:13:13.157Z,5156.00
2018-07-27T10:14:13.227Z,5108.00
2018-07-27T10:16:06.238Z,5032.00
2018-07-27T10:17:06.313Z,5032.00
2018-07-27T10:18:59.330Z,5064.00
2018-07-27T10:19:59.399Z,5048.00
2018-07-27T10:21:52.424Z,4948.00
2018-07-27T10:22:52.490Z,4908.00
2018-07-27T10:24:45.515Z,4832.00
2018-07-27T10:25:45.575Z,4788.00
2018-07-27T10:27:39.122Z,4740.00
2018-07-27T10:28:39.173Z,4736.00
2018-07-27T10:30:32.222Z,4664.00
2018-07-27T10:31:32.277Z,4624.00
2018-07-27T10:33:25.349Z,4640.00
2018-07-27T10:34:25.352Z,4672.00
2018-07-27T10:36:18.396Z,4700.00
2018-07-27T10:37:18.439Z,4684.00
2018-07-27T10:39:11.460Z,4640.00
2018-07-27T10:40:11.523Z,4616.00
2018-07-27T10:42:04.584Z,4624.00
2018-07-27T10:43:04.614Z,4640.00
2018-07-27T10:44:57.727Z,4624.00
2018-07-27T10:45:57.720Z,4572.00
2018-07-27T10:47:50.740Z,4492.00
2018-07-27T10:48:50.794Z,4444.00
2018-07-27T10:50:43.801Z,4384.00
2018-07-27T10:51:43.873Z,4344.00
2018-07-27T10:53:36.905Z,4308.00
2018-07-27T10:54:36.972Z,4296.00
2018-07-27T10:56:30.048Z,4284.00
2018-07-27T10:57:30.065Z,4268.00
2018-07-27T10:59:23.078Z,4208.00
2018-07-27T11:00:23.143Z,4184.00
2018-07-27T11:02:16.180Z,4128.00
2018-07-27T11:03:16.226Z,4088.00
2018-07-27T11:05:09.241Z,4112.00
2018-07-27T11:06:09.310Z,4120.00
2018-07-27T11:08:02.331Z,4136.00
2018-07-27T11:09:02.401Z,4128.00
2018-07-27T11:10:55.411Z,4028.00
2018-07-27T11:11:55.486Z,3992.00
2018-07-27T11:13:48.501Z,3964.00
2018-07-27T11:14:48.567Z,3964.00
2018-07-27T11:16:41.585Z,3984.00
2018-07-27T11:17:41.649Z,3988.00
2018-07-27T11:19:34.674Z,4008.00
2018-07-27T11:20:34.747Z,4000.00
2018-07-27T11:22:27.766Z,3956.00
2018-07-27T11:23:27.831Z,3932.00
2018-07-27T11:25:20.845Z,3972.00
2018-07-27T11:26:20.919Z,3988.00
2018-07-27T11:28:13.934Z,3904.00
2018-07-27T11:29:14.001Z,3840.00
2018-07-27T11:31:07.047Z,3828.00
2018-07-27T11:32:07.084Z,3872.00
2018-07-27T11:34:00.118Z,3884.00
2018-07-27T11:35:00.179Z,3880.00
2018-07-27T11:36:53.187Z,3904.00
2018-07-27T11:37:53.265Z,3904.00
2018-07-27T11:39:46.288Z,3908.00
2018-07-27T11:40:46.352Z,3888.00
2018-07-27T11:42:39.452Z,3840.00
2018-07-27T11:43:39.446Z,3820.00
2018-07-27T11:45:32.446Z,3760.00
2018-07-27T11:46:32.515Z,3736.00
2018-07-27T11:48:25.545Z,3776.00
2018-07-27T11:49:25.660Z,3776.00
2018-07-27T11:51:18.614Z,3792.00
2018-07-27T11:52:18.691Z,3828.00
2018-07-27T11:54:11.699Z,3848.00
2018-07-27T11:55:11.768Z,3820.00
2018-07-27T11:57:04.779Z,3792.00
2018-07-27T11:58:04.853Z,3804.00
2018-07-27T11:59:57.892Z,3828.00
2018-07-27T12:00:57.964Z,3836.00
2018-07-27T12:02:50.991Z,3840.00
2018-07-27T12:03:51.057Z,3800.00
2018-07-27T12:05:44.071Z,3756.00
2018-07-27T12:06:44.138Z,3740.00
2018-07-27T12:08:37.158Z,3752.00
2018-07-27T12:09:37.227Z,3776.00
2018-07-27T12:11:30.235Z,3800.00
2018-07-27T12:12:30.310Z,3792.00
2018-07-27T12:14:23.488Z,3776.00
2018-07-27T12:15:23.392Z,3784.00
2018-07-27T12:17:16.405Z,3748.00
2018-07-27T12:18:16.475Z,3704.00
2018-07-27T12:20:09.493Z,3644.00
2018-07-27T12:21:09.650Z,3624.00
2018-07-27T12:23:02.577Z,3604.00
2018-07-27T12:24:02.643Z,3632.00
2018-07-27T12:25:55.655Z,3712.00
2018-07-27T12:26:55.728Z,3728.00
2018-07-27T12:28:48.819Z,3692.00
2018-07-27T12:29:48.826Z,3680.00
2018-07-27T12:31:41.823Z,3640.00
2018-07-27T12:32:41.954Z,3596.00
2018-07-27T12:34:34.914Z,3516.00
2018-07-27T12:35:34.981Z,3492.00
2018-07-27T12:37:27.991Z,3452.00
2018-07-27T12:38:28.063Z,3380.00
2018-07-27T12:40:21.086Z,3324.00
2018-07-27T12:41:21.154Z,3308.00
2018-07-27T12:43:14.192Z,3256.00
2018-07-27T12:44:14.249Z,3248.00
2018-07-27T12:46:07.254Z,3240.00
2018-07-27T12:47:07.328Z,3252.00
2018-07-27T12:49:00.342Z,3432.00
2018-07-27T12:50:00.409Z,3624.00
2018-07-27T12:51:53.423Z,3392.00
2018-07-27T12:52:53.501Z,3164.00
2018-07-27T12:54:46.511Z,3092.00
2018-07-27T12:55:46.578Z,3068.00
2018-07-27T12:57:39.588Z,3036.00
2018-07-27T12:58:39.659Z,3032.00
2018-07-27T13:00:32.675Z,2984.00
2018-07-27T13:01:32.742Z,2956.00
2018-07-27T13:03:25.770Z,2900.00
2018-07-27T13:04:25.829Z,2872.00
2018-07-27T13:06:18.835Z,2844.00
2018-07-27T13:07:18.908Z,2832.00
2018-07-27T13:09:11.934Z,2800.00
2018-07-27T13:10:11.997Z,2788.00
2018-07-27T13:12:05.026Z,2776.00
2018-07-27T13:13:05.079Z,2768.00
2018-07-27T13:14:58.106Z,2752.00
2018-07-27T13:15:58.167Z,2744.00
2018-07-27T13:17:51.173Z,2740.00
2018-07-27T13:18:51.242Z,2732.00
2018-07-27T13:20:44.429Z,2712.00
2018-07-27T13:21:44.397Z,2700.00
2018-07-27T13:23:37.347Z,2684.00
2018-07-27T13:25:03.185Z,2676.00
2018-07-27T13:26:30.486Z,2672.00
2018-07-27T13:27:30.511Z,2660.00
2018-07-27T13:29:23.510Z,2644.00
2018-07-27T13:30:23.664Z,2636.00
2018-07-27T13:32:16.604Z,2624.00
2018-07-27T13:33:16.658Z,2616.00
2018-07-27T13:35:09.746Z,2604.00
2018-07-27T13:36:09.748Z,2604.00
2018-07-27T13:38:02.817Z,2604.00
2018-07-27T13:39:02.840Z,2612.00
2018-07-27T13:40:55.856Z,2624.00
2018-07-27T13:41:55.928Z,2624.00
2018-07-27T13:43:48.959Z,2616.00
2018-07-27T13:44:49.023Z,2604.00
2018-07-27T13:46:42.014Z,2592.00
2018-07-27T13:47:42.146Z,2584.00
2018-07-27T13:49:35.110Z,2576.00
2018-07-27T13:50:35.162Z,2564.00
2018-07-27T13:52:28.174Z,2556.00
2018-07-27T13:53:28.247Z,2560.00
2018-07-27T13:55:21.283Z,2564.00
2018-07-27T13:56:21.328Z,2556.00
2018-07-27T13:58:14.367Z,2552.00
2018-07-27T13:59:14.411Z,2552.00
2018-07-27T14:01:07.427Z,2548.00
2018-07-27T14:02:07.507Z,2556.00
2018-07-27T14:04:01.999Z,2596.00
2018-07-27T14:05:02.071Z,2608.00
2018-07-27T14:06:55.101Z,2596.00
2018-07-27T14:07:55.168Z,2584.00
2018-07-27T14:09:48.189Z,2556.00
2018-07-27T14:10:48.249Z,2552.00
2018-07-27T14:12:41.296Z,2548.00
2018-07-27T14:13:41.333Z,2544.00
2018-07-27T14:15:34.351Z,2548.00
2018-07-27T14:16:34.423Z,2552.00
2018-07-27T14:18:27.434Z,2564.00
2018-07-27T14:19:27.508Z,2564.00
2018-07-27T14:21:20.541Z,2552.00
2018-07-27T14:22:20.603Z,2544.00
2018-07-27T14:24:13.602Z,2544.00
2018-07-27T14:25:13.680Z,2544.00
2018-07-27T14:27:06.695Z,2536.00
2018-07-27T14:28:06.760Z,2528.00
2018-07-27T14:29:59.777Z,2520.00
2018-07-27T14:30:59.843Z,2516.00
2018-07-27T14:32:52.850Z,2508.00
2018-07-27T14:33:52.923Z,2496.00
2018-07-27T14:35:45.942Z,2468.00
2018-07-27T14:36:46.029Z,2460.00
2018-07-27T14:38:39.030Z,2464.00
2018-07-27T14:39:39.090Z,2464.00
2018-07-27T14:41:32.111Z,2472.00
2018-07-27T14:42:32.234Z,2472.00
2018-07-27T14:44:25.423Z,2460.00
2018-07-27T14:45:25.345Z,2444.00
2018-07-27T14:47:18.444Z,2424.00
2018-07-27T14:48:18.437Z,2412.00
2018-07-27T14:50:11.911Z,2424.00
2018-07-27T14:51:11.961Z,2432.00
2018-07-27T14:53:05.126Z,2440.00
2018-07-27T14:54:05.069Z,2444.00
2018-07-27T14:55:58.207Z,2456.00
2018-07-27T14:56:58.122Z,2456.00
2018-07-27T14:58:51.148Z,2452.00
2018-07-27T14:59:51.220Z,2456.00
2018-07-27T15:01:44.268Z,2456.00
2018-07-27T15:02:44.302Z,2448.00
2018-07-27T15:04:37.313Z,2444.00
2018-07-27T15:05:37.386Z,2440.00
2018-07-27T15:07:30.403Z,2444.00
2018-07-27T15:08:30.466Z,2444.00
2018-07-27T15:10:23.484Z,2448.00
2018-07-27T15:11:23.551Z,2444.00
2018-07-27T15:13:16.576Z,2428.00
2018-07-27T15:14:16.788Z,2432.00
2018-07-27T15:16:09.657Z,2440.00
2018-07-27T15:17:09.723Z,2440.00
2018-07-27T15:19:02.725Z,2436.00
2018-07-27T15:20:02.809Z,2440.00
2018-07-27T15:21:55.813Z,2444.00
2018-07-27T15:22:55.878Z,2448.00
2018-07-27T15:24:48.889Z,2452.00
2018-07-27T15:25:48.969Z,2452.00
2018-07-27T15:27:41.986Z,2440.00
2018-07-27T15:28:42.057Z,2436.00
2018-07-27T15:30:35.075Z,2436.00
2018-07-27T15:31:35.142Z,2432.00
2018-07-27T15:33:28.157Z,2436.00
2018-07-27T15:34:28.222Z,2440.00
2018-07-27T15:36:21.297Z,2436.00
2018-07-27T15:37:21.315Z,2440.00
2018-07-27T15:39:14.326Z,2452.00
2018-07-27T15:40:14.399Z,2456.00
2018-07-27T15:42:07.414Z,2468.00
2018-07-27T15:43:07.481Z,2468.00
2018-07-27T15:45:00.507Z,2468.00
2018-07-27T15:46:00.562Z,2472.00
2018-07-27T15:47:53.580Z,2476.00
2018-07-27T15:48:53.645Z,2476.00
2018-07-27T15:50:46.662Z,2468.00
2018-07-27T15:51:46.727Z,2468.00
2018-07-27T15:53:39.746Z,2484.00
2018-07-27T15:54:39.812Z,2492.00
2018-07-27T15:56:32.829Z,2492.00
2018-07-27T15:57:32.895Z,2472.00
2018-07-27T15:59:25.903Z,2460.00
2018-07-27T16:00:26.232Z,2456.00
2018-07-27T16:02:18.989Z,2436.00
2018-07-27T16:03:19.056Z,2428.00
2018-07-27T16:05:12.068Z,2420.00
2018-07-27T16:06:12.148Z,2416.00
2018-07-27T16:08:05.663Z,2408.00
2018-07-27T16:09:05.740Z,2396.00
2018-07-27T16:10:58.752Z,2384.00
2018-07-27T16:11:58.812Z,2376.00
2018-07-27T16:13:51.862Z,2372.00
2018-07-27T16:14:51.895Z,2372.00
2018-07-27T16:16:44.917Z,2380.00
2018-07-27T16:17:44.982Z,2376.00
2018-07-27T16:19:37.993Z,2364.00
2018-07-27T16:20:38.066Z,2364.00
2018-07-27T16:22:31.082Z,2356.00
2018-07-27T16:23:31.147Z,2348.00
2018-07-27T16:25:24.162Z,2336.00
2018-07-27T16:26:24.242Z,2332.00
2018-07-27T16:28:17.264Z,2324.00
2018-07-27T16:29:17.344Z,2324.00
2018-07-27T16:31:10.355Z,2320.00
2018-07-27T16:32:10.439Z,2316.00
2018-07-27T16:34:03.431Z,2300.00
2018-07-27T16:35:03.505Z,2300.00
2018-07-27T16:36:56.526Z,2296.00
2018-07-27T16:37:56.593Z,2296.00
2018-07-27T16:39:49.609Z,2296.00
2018-07-27T16:40:49.709Z,2288.00
2018-07-27T16:42:42.705Z,2284.00
2018-07-27T16:43:42.793Z,2284.00
2018-07-27T16:45:35.784Z,2280.00
2018-07-27T16:46:35.907Z,2280.00
2018-07-27T16:48:28.886Z,2280.00
2018-07-27T16:49:28.939Z,2280.00
2018-07-27T16:51:21.954Z,2264.00
2018-07-27T16:52:22.017Z,2256.00
2018-07-27T16:54:15.032Z,2236.00
2018-07-27T16:55:15.101Z,2224.00
2018-07-27T16:57:08.126Z,2216.00
2018-07-27T16:58:08.183Z,2212.00
2018-07-27T17:00:01.189Z,2208.00
2018-07-27T17:01:01.262Z,2200.00
2018-07-27T17:02:54.299Z,2180.00
2018-07-27T17:03:54.595Z,2176.00
2018-07-27T17:05:47.366Z,2160.00
2018-07-27T17:06:47.438Z,2156.00
2018-07-27T17:08:40.961Z,2136.00
2018-07-27T17:09:41.031Z,2128.00
2018-07-27T17:11:34.044Z,2112.00
2018-07-27T17:12:34.108Z,2108.00
2018-07-27T17:14:27.116Z,2092.00
2018-07-27T17:15:27.185Z,2084.00
2018-07-27T17:17:20.207Z,2064.00
2018-07-27T17:18:20.274Z,2056.00
2018-07-27T17:20:13.284Z,2028.00
2018-07-27T17:21:13.355Z,2020.00
2018-07-27T17:23:06.381Z,1988.00
2018-07-27T17:24:06.436Z,1976.00
2018-07-27T17:25:59.458Z,1956.00
2018-07-27T17:26:59.522Z,1944.00
2018-07-27T17:28:52.540Z,1928.00
2018-07-27T17:29:52.607Z,1920.00
2018-07-27T17:31:45.657Z,1904.00
2018-07-27T17:32:45.757Z,1892.00
2018-07-27T17:34:38.724Z,1876.00
2018-07-27T17:35:38.795Z,1860.00
2018-07-27T17:37:31.814Z,1844.00
2018-07-27T17:38:31.879Z,1836.00
2018-07-27T17:40:24.882Z,1824.00
2018-07-27T17:41:24.966Z,1816.00